Terminal Aerodrome Forecast
Issued by NWS Duluth, MN

Home | Current Version | Previous Version | Graphics & Text | Print | Product List | Glossary On
Versions: 1 2 3 4 5 6 7 8 9 10 11 12 13 14 15 16 17 18
092
FTUS43 KDLH 301720
TAFDLH
TAF
KDLH 301720Z 3018/3118 08012G19KT P6SM SCT070
     FM310000 07008KT P6SM SCT010 BKN050
     FM310300 06007KT P6SM BKN007
     FM311200 06008KT P6SM SCT012=

USA.gov is the U.S. government's official web portal to all federal, state and local government web resources and services.